createdAt,value
2023-05-22T00:00:19.706Z,101897.31
2023-05-22T00:02:48.419Z,101889.44
2023-05-22T00:05:18.308Z,101891.50
2023-05-22T00:07:46.488Z,101881.75
2023-05-22T00:10:14.176Z,101881.75
2023-05-22T00:12:41.861Z,101881.16
2023-05-22T00:15:11.408Z,101875.16
2023-05-22T00:17:40.468Z,101872.84
2023-05-22T00:20:11.088Z,101869.13
2023-05-22T00:22:39.181Z,101870.97
2023-05-22T00:25:08.384Z,101879.44
2023-05-22T00:27:36.074Z,101875.69
2023-05-22T00:30:04.012Z,101868.66
2023-05-22T00:32:31.621Z,101870.50
2023-05-22T00:35:00.643Z,101870.06
2023-05-22T00:37:28.736Z,101862.84
2023-05-22T00:39:56.485Z,101871.75
2023-05-22T00:42:24.313Z,101870.69
2023-05-22T00:44:52.008Z,101858.31
2023-05-22T00:47:19.678Z,101860.94
2023-05-22T00:49:47.737Z,101862.81
2023-05-22T00:52:17.735Z,101870.63
2023-05-22T00:54:45.617Z,101864.03
2023-05-22T00:57:14.208Z,101854.06
2023-05-22T00:59:42.016Z,101857.38
2023-05-22T01:02:10.084Z,101855.47
2023-05-22T01:04:37.860Z,101860.84
2023-05-22T01:07:06.054Z,101863.91
2023-05-22T01:09:35.026Z,101857.47
2023-05-22T01:12:14.325Z,101861.38
2023-05-22T01:14:48.257Z,101857.25
2023-05-22T01:17:24.857Z,101850.59
2023-05-22T01:20:07.036Z,101852.28
2023-05-22T01:23:32.981Z,101859.25
2023-05-22T01:26:33.057Z,101851.34
2023-05-22T01:29:15.354Z,101851.72
2023-05-22T01:31:47.294Z,101854.22
2023-05-22T01:34:17.354Z,101851.28
2023-05-22T01:36:47.755Z,101845.28
2023-05-22T01:39:16.968Z,101847.53
2023-05-22T01:41:44.700Z,101843.38
2023-05-22T01:44:12.353Z,101848.75
2023-05-22T01:46:39.945Z,101834.03
2023-05-22T01:49:09.302Z,101837.78
2023-05-22T01:51:46.859Z,101838.34
2023-05-22T01:54:20.363Z,101831.50
2023-05-22T01:56:54.900Z,101833.56
2023-05-22T01:59:30.831Z,101827.13
2023-05-22T02:02:01.678Z,101829.16
2023-05-22T02:04:32.356Z,101835.47
2023-05-22T02:07:01.485Z,101839.38
2023-05-22T02:09:31.756Z,101828.66
2023-05-22T02:12:01.501Z,101818.94
2023-05-22T02:14:30.378Z,101827.56
2023-05-22T02:16:58.246Z,101822.38
2023-05-22T02:19:25.925Z,101807.13
2023-05-22T02:21:55.093Z,101814.94
2023-05-22T02:24:23.581Z,101815.94
2023-05-22T02:26:51.527Z,101810.75
2023-05-22T02:29:19.172Z,101810.97
2023-05-22T02:31:47.286Z,101805.16
2023-05-22T02:34:15.003Z,101812.34
2023-05-22T02:36:42.590Z,101803.50
2023-05-22T02:39:11.701Z,101802.84
2023-05-22T02:41:39.673Z,101800.75
2023-05-22T02:44:07.384Z,101806.13
2023-05-22T02:46:35.024Z,101806.13
2023-05-22T02:49:02.633Z,101810.00
2023-05-22T02:51:30.383Z,101799.91
2023-05-22T02:53:58.649Z,101799.72
2023-05-22T02:56:29.524Z,101804.66
2023-05-22T02:58:57.505Z,101791.44
2023-05-22T03:01:26.429Z,101795.19
2023-05-22T03:03:54.968Z,101794.34
2023-05-22T03:06:23.192Z,101786.53
2023-05-22T03:08:50.988Z,101781.63
2023-05-22T03:11:18.602Z,101779.31
2023-05-22T03:13:47.564Z,101786.97
2023-05-22T03:16:15.432Z,101784.28
2023-05-22T03:18:43.281Z,101785.13
2023-05-22T03:21:10.930Z,101776.88
2023-05-22T03:23:38.535Z,101784.28
2023-05-22T03:26:06.518Z,101785.13
2023-05-22T03:28:34.166Z,101780.78
2023-05-22T03:31:03.320Z,101783.25
2023-05-22T03:33:31.073Z,101789.06
2023-05-22T03:35:58.710Z,101787.47
2023-05-22T03:38:26.282Z,101787.47
2023-05-22T03:40:54.660Z,101785.06
2023-05-22T03:43:22.246Z,101777.81
2023-05-22T03:45:50.402Z,101785.31
2023-05-22T03:48:19.415Z,101781.63
2023-05-22T03:50:47.057Z,101770.91
2023-05-22T03:53:14.694Z,101782.47
2023-05-22T03:55:42.309Z,101774.06
2023-05-22T03:58:10.056Z,101787.28
2023-05-22T04:00:38.410Z,101776.63
2023-05-22T04:03:07.265Z,101775.19
2023-05-22T04:05:36.543Z,101776.84
2023-05-22T04:08:04.444Z,101782.06
2023-05-22T04:10:32.135Z,101774.06
2023-05-22T04:13:00.344Z,101771.06
2023-05-22T04:15:28.379Z,101772.34
2023-05-22T04:17:56.646Z,101764.34
2023-05-22T04:20:24.437Z,101766.28
2023-05-22T04:22:54.426Z,101761.13
2023-05-22T04:25:22.616Z,101763.50
2023-05-22T04:27:50.578Z,101764.53
2023-05-22T04:30:18.549Z,101763.94
2023-05-22T04:32:46.398Z,101759.59
2023-05-22T04:35:18.519Z,101768.91
2023-05-22T04:37:46.525Z,101761.69
2023-05-22T04:40:15.782Z,101765.44
2023-05-22T04:42:44.065Z,101762.19
2023-05-22T04:45:14.007Z,101757.72
2023-05-22T04:47:42.258Z,101758.78
2023-05-22T04:50:10.584Z,101749.13
2023-05-22T04:52:38.515Z,101761.78
2023-05-22T04:55:07.446Z,101761.16
2023-05-22T04:57:36.436Z,101755.91
2023-05-22T05:00:06.290Z,101757.06
2023-05-22T05:02:33.962Z,101746.81
2023-05-22T05:05:01.640Z,101748.13
2023-05-22T05:07:29.386Z,101742.91
2023-05-22T05:09:57.143Z,101750.69
2023-05-22T05:12:24.861Z,101744.75
2023-05-22T05:14:53.924Z,101747.25
2023-05-22T05:17:22.353Z,101746.50
2023-05-22T05:19:50.246Z,101748.81
2023-05-22T05:22:18.115Z,101741.47
2023-05-22T05:24:45.817Z,101736.91
2023-05-22T05:27:13.871Z,101736.81
2023-05-22T05:29:41.746Z,101742.75
2023-05-22T05:32:12.095Z,101736.25
2023-05-22T05:34:39.733Z,101740.63
2023-05-22T05:37:07.372Z,101742.09
2023-05-22T05:39:34.989Z,101747.00
2023-05-22T05:42:02.626Z,101732.56
2023-05-22T05:44:30.268Z,101741.66
2023-05-22T05:47:00.998Z,101745.28
2023-05-22T05:49:30.100Z,101740.09
2023-05-22T05:51:57.943Z,101736.75
2023-05-22T05:54:27.101Z,101743.16
2023-05-22T05:56:54.766Z,101735.66
2023-05-22T05:59:22.408Z,101742.56
2023-05-22T06:01:50.606Z,101744.81
2023-05-22T06:04:18.231Z,101744.63
2023-05-22T06:06:47.794Z,101737.31
2023-05-22T06:09:15.504Z,101734.47
2023-05-22T06:11:43.209Z,101738.66
2023-05-22T06:14:10.977Z,101739.78
2023-05-22T06:16:39.017Z,101739.00
2023-05-22T06:19:06.746Z,101736.00
2023-05-22T06:21:34.358Z,101740.16
2023-05-22T06:24:03.433Z,101727.25
2023-05-22T06:26:31.645Z,101735.06
2023-05-22T06:28:59.376Z,101735.00
2023-05-22T06:31:28.099Z,101734.84
2023-05-22T06:33:55.935Z,101737.00
2023-05-22T06:36:23.636Z,101725.13
2023-05-22T06:38:51.833Z,101726.97
2023-05-22T06:41:21.096Z,101734.13
2023-05-22T06:43:48.774Z,101730.00
2023-05-22T06:46:16.413Z,101737.84
2023-05-22T06:48:44.130Z,101731.81
2023-05-22T06:51:12.766Z,101728.91
2023-05-22T06:53:40.519Z,101726.13
2023-05-22T06:56:08.337Z,101723.94
2023-05-22T06:58:37.289Z,101723.31
2023-05-22T07:01:05.832Z,101722.63
2023-05-22T07:03:33.513Z,101725.66
2023-05-22T07:06:02.222Z,101721.47
2023-05-22T07:08:30.752Z,101731.56
2023-05-22T07:10:58.603Z,101719.31
2023-05-22T07:13:26.228Z,101722.56
2023-05-22T07:15:55.267Z,101720.03
2023-05-22T07:18:22.897Z,101729.19
2023-05-22T07:20:50.551Z,101721.56
2023-05-22T07:23:18.209Z,101731.81
2023-05-22T07:25:45.889Z,101733.16
2023-05-22T07:28:13.905Z,101734.34
2023-05-22T07:30:41.682Z,101732.47
2023-05-22T07:33:11.659Z,101741.44
2023-05-22T07:35:39.336Z,101729.97
2023-05-22T07:38:07.016Z,101735.28
2023-05-22T07:40:34.660Z,101728.75
2023-05-22T07:43:02.265Z,101719.47
2023-05-22T07:45:29.816Z,101724.34
2023-05-22T07:47:58.970Z,101715.41
2023-05-22T07:50:30.486Z,101709.78
2023-05-22T07:52:58.171Z,101714.03
2023-05-22T07:55:26.277Z,101712.81
2023-05-22T07:57:53.976Z,101717.81
2023-05-22T08:00:22.666Z,101718.78
2023-05-22T08:02:50.358Z,101712.63
2023-05-22T08:05:18.074Z,101702.22
2023-05-22T08:07:47.153Z,101712.25
2023-05-22T08:10:16.187Z,101706.94
2023-05-22T08:12:44.324Z,101712.44
2023-05-22T08:15:12.807Z,101714.22
2023-05-22T08:17:40.723Z,101709.41
2023-05-22T08:20:10.307Z,101700.19
2023-05-22T08:22:40.293Z,101706.34
2023-05-22T08:25:10.553Z,101703.22
2023-05-22T08:27:38.225Z,101707.53
2023-05-22T08:30:07.183Z,101710.59
2023-05-22T08:32:35.112Z,101687.38
2023-05-22T08:35:02.867Z,101694.50
2023-05-22T08:37:30.558Z,101694.66
2023-05-22T08:39:58.162Z,101682.41
2023-05-22T08:42:27.229Z,101670.31
2023-05-22T08:44:57.942Z,101670.19
2023-05-22T08:47:28.425Z,101669.00
2023-05-22T08:49:58.301Z,101674.00
2023-05-22T08:52:33.912Z,101668.50
2023-05-22T08:55:05.007Z,101674.06
2023-05-22T08:57:35.011Z,101679.94
2023-05-22T09:00:02.716Z,101673.09
2023-05-22T09:02:30.610Z,101673.38
2023-05-22T09:04:58.245Z,101679.91
2023-05-22T09:07:27.886Z,101676.06
2023-05-22T09:09:55.510Z,101667.06
2023-05-22T09:12:23.147Z,101671.47
2023-05-22T09:14:53.466Z,101665.00
2023-05-22T09:17:22.930Z,101668.50
2023-05-22T09:19:50.757Z,101664.84
2023-05-22T09:22:18.571Z,101660.69
2023-05-22T09:24:47.029Z,101651.47
2023-05-22T09:27:14.769Z,101659.41
2023-05-22T09:29:49.474Z,101652.47
2023-05-22T09:32:19.779Z,101658.31
2023-05-22T09:34:47.786Z,101647.59
2023-05-22T09:37:15.725Z,101652.16
2023-05-22T09:39:45.241Z,101640.06
2023-05-22T09:42:17.082Z,101639.63
2023-05-22T09:44:49.628Z,101636.03
2023-05-22T09:47:18.715Z,101639.13
2023-05-22T09:49:47.064Z,101633.69
2023-05-22T09:52:15.604Z,101629.81
2023-05-22T09:54:50.959Z,101642.78
2023-05-22T09:57:20.221Z,101641.91
2023-05-22T09:59:54.138Z,101632.09
2023-05-22T10:02:24.666Z,101625.63
2023-05-22T10:04:53.419Z,101629.88
2023-05-22T10:07:24.267Z,101630.28
2023-05-22T10:09:57.373Z,101627.56
2023-05-22T10:12:29.844Z,101618.63
2023-05-22T10:14:57.754Z,101635.25
2023-05-22T10:17:27.989Z,101616.22
2023-05-22T10:19:58.632Z,101618.13
2023-05-22T10:22:28.544Z,101613.22
2023-05-22T10:24:56.408Z,101618.88
2023-05-22T10:27:24.015Z,101606.72
2023-05-22T10:29:56.906Z,101611.16
2023-05-22T10:32:34.254Z,101608.75
2023-05-22T10:35:09.873Z,101610.25
2023-05-22T10:37:50.056Z,101598.69
2023-05-22T10:40:28.671Z,101595.84
2023-05-22T10:43:00.701Z,101590.72
2023-05-22T10:45:29.538Z,101597.41
2023-05-22T10:48:06.068Z,101588.69
2023-05-22T10:50:34.513Z,101586.03
2023-05-22T10:53:23.253Z,101592.13
2023-05-22T10:55:52.011Z,101581.94
2023-05-22T10:58:26.304Z,101591.00
2023-05-22T11:01:10.029Z,101594.91
2023-05-22T11:03:58.136Z,101587.69
2023-05-22T11:06:38.107Z,101587.88
2023-05-22T11:09:29.083Z,101602.13
2023-05-22T11:12:17.530Z,101585.78
2023-05-22T11:14:50.125Z,101584.00
2023-05-22T11:17:19.687Z,101580.75
2023-05-22T11:19:58.910Z,101581.22
2023-05-22T11:22:32.503Z,101589.09
2023-05-22T11:25:00.728Z,101564.47
2023-05-22T11:27:29.593Z,101572.41
2023-05-22T11:29:57.577Z,101567.53
2023-05-22T11:32:25.766Z,101574.31
2023-05-22T11:34:56.789Z,101569.69
2023-05-22T11:37:24.701Z,101576.69
2023-05-22T11:39:53.168Z,101577.03
2023-05-22T11:42:21.212Z,101572.97
2023-05-22T11:44:48.951Z,101582.03
2023-05-22T11:47:16.761Z,101576.91
2023-05-22T11:49:45.166Z,101579.16
2023-05-22T11:52:14.666Z,101574.50
2023-05-22T11:54:42.302Z,101570.84
2023-05-22T11:57:10.349Z,101579.25
2023-05-22T11:59:37.982Z,101569.41
2023-05-22T12:02:06.038Z,101566.19
2023-05-22T12:04:33.875Z,101564.81
2023-05-22T12:07:01.665Z,101565.75
2023-05-22T12:09:30.838Z,101561.03
2023-05-22T12:11:59.834Z,101555.28
2023-05-22T12:14:28.247Z,101540.94
2023-05-22T12:17:00.027Z,101554.44
2023-05-22T12:19:28.646Z,101545.53
2023-05-22T12:21:56.389Z,101549.41
2023-05-22T12:24:24.227Z,101544.03
2023-05-22T12:26:54.031Z,101534.81
2023-05-22T12:29:24.036Z,101542.53
2023-05-22T12:31:52.266Z,101550.53
2023-05-22T12:34:20.042Z,101542.50
2023-05-22T12:36:49.204Z,101549.78
2023-05-22T12:39:18.165Z,101542.31
2023-05-22T12:41:46.507Z,101551.97
2023-05-22T12:44:16.812Z,101548.25
2023-05-22T12:46:44.673Z,101546.50
2023-05-22T12:49:12.542Z,101545.59
2023-05-22T12:51:40.277Z,101541.31
2023-05-22T12:54:08.227Z,101524.47
2023-05-22T12:56:35.900Z,101517.75
2023-05-22T12:59:03.933Z,101521.50
2023-05-22T13:01:33.153Z,101511.34
2023-05-22T13:04:00.907Z,101520.91
2023-05-22T13:06:30.286Z,101534.38
2023-05-22T13:09:00.689Z,101507.16
2023-05-22T13:11:28.405Z,101486.06
2023-05-22T13:13:56.068Z,101506.97
2023-05-22T13:16:23.756Z,101500.25
2023-05-22T13:18:52.891Z,101500.63
2023-05-22T13:21:20.638Z,101502.06
2023-05-22T13:23:48.325Z,101493.22
2023-05-22T13:26:16.543Z,101495.13
2023-05-22T13:28:44.226Z,101486.66
2023-05-22T13:31:12.215Z,101489.91
2023-05-22T13:33:39.963Z,101480.13
2023-05-22T13:36:09.267Z,101494.84
2023-05-22T13:38:36.943Z,101485.28
2023-05-22T13:41:04.627Z,101485.03
2023-05-22T13:43:32.404Z,101474.97
2023-05-22T13:46:00.150Z,101480.97
2023-05-22T13:48:27.831Z,101477.69
2023-05-22T13:50:55.447Z,101469.22
2023-05-22T13:53:24.461Z,101470.06
2023-05-22T13:55:52.169Z,101467.06
2023-05-22T13:58:19.842Z,101464.06
2023-05-22T14:00:47.655Z,101471.97
2023-05-22T14:03:17.506Z,101465.09
2023-05-22T14:05:45.729Z,101463.75
2023-05-22T14:08:13.669Z,101462.66
2023-05-22T14:10:42.831Z,101461.03
2023-05-22T14:13:10.478Z,101459.13
2023-05-22T14:15:38.196Z,101454.78
2023-05-22T14:18:06.202Z,101447.38
2023-05-22T14:20:33.852Z,101439.41
2023-05-22T14:23:01.507Z,101446.81
2023-05-22T14:25:29.196Z,101435.31
2023-05-22T14:27:58.136Z,101443.19
2023-05-22T14:30:25.797Z,101438.81
2023-05-22T14:32:54.093Z,101435.81
2023-05-22T14:35:22.182Z,101430.94
2023-05-22T14:37:49.933Z,101435.78
2023-05-22T14:40:17.894Z,101434.13
2023-05-22T14:42:45.938Z,101424.00
2023-05-22T14:45:14.985Z,101418.16
2023-05-22T14:47:43.507Z,101428.94
2023-05-22T14:50:18.998Z,101420.72
2023-05-22T14:52:48.128Z,101418.13
2023-05-22T14:55:16.241Z,101406.28
2023-05-22T14:57:44.040Z,101404.78
2023-05-22T15:00:13.094Z,101408.09
2023-05-22T15:02:42.132Z,101408.28
2023-05-22T15:05:10.687Z,101408.81
2023-05-22T15:07:44.552Z,101397.09
2023-05-22T15:10:13.850Z,101394.97
2023-05-22T15:12:41.566Z,101391.16
2023-05-22T15:15:10.087Z,101380.28
2023-05-22T15:17:38.901Z,101376.63
2023-05-22T15:20:11.316Z,101381.31
2023-05-22T15:22:39.355Z,101374.03
2023-05-22T15:25:08.852Z,101375.53
2023-05-22T15:27:36.732Z,101371.72
2023-05-22T15:30:06.593Z,101380.97
2023-05-22T15:32:34.377Z,101374.31
2023-05-22T15:35:02.145Z,101357.19
2023-05-22T15:37:33.583Z,101364.44
2023-05-22T15:40:02.223Z,101359.56
2023-05-22T15:42:30.041Z,101358.59
2023-05-22T15:45:00.253Z,101359.31
2023-05-22T15:47:28.048Z,101353.72
2023-05-22T15:49:55.808Z,101366.31
2023-05-22T15:52:25.013Z,101350.56
2023-05-22T15:54:55.694Z,101349.75
2023-05-22T15:57:24.735Z,101350.34
2023-05-22T15:59:52.317Z,101367.00
2023-05-22T16:02:20.106Z,101352.88
2023-05-22T16:04:47.818Z,101353.25
2023-05-22T16:07:15.515Z,101346.38
2023-05-22T16:09:43.392Z,101357.56
2023-05-22T16:12:12.417Z,101347.63
2023-05-22T16:14:40.497Z,101343.44
2023-05-22T16:17:08.242Z,101354.38
2023-05-22T16:19:36.135Z,101348.69
2023-05-22T16:22:04.078Z,101348.13
2023-05-22T16:24:31.739Z,101348.41
2023-05-22T16:27:00.727Z,101351.53
2023-05-22T16:29:31.399Z,101359.00
2023-05-22T16:31:59.464Z,101354.72
2023-05-22T16:34:27.226Z,101351.19
2023-05-22T16:36:54.849Z,101358.13
2023-05-22T16:39:22.480Z,101359.56
2023-05-22T16:41:51.638Z,101344.53
2023-05-22T16:44:21.459Z,101349.47
2023-05-22T16:46:50.510Z,101360.41
2023-05-22T16:49:18.930Z,101347.03
2023-05-22T16:51:46.725Z,101345.00
2023-05-22T16:54:14.762Z,101371.25
2023-05-22T16:56:42.578Z,101351.13
2023-05-22T16:59:10.292Z,101348.66
2023-05-22T17:01:38.145Z,101355.00
2023-05-22T17:04:07.813Z,101348.72
2023-05-22T17:06:35.619Z,101362.94
2023-05-22T17:09:03.450Z,101357.66
2023-05-22T17:11:31.055Z,101368.81
2023-05-22T17:13:58.637Z,101370.56
2023-05-22T17:16:26.324Z,101378.50
2023-05-22T17:18:55.082Z,101377.59
2023-05-22T17:21:24.241Z,101395.53
2023-05-22T17:23:51.929Z,101406.63
2023-05-22T17:26:19.688Z,101425.63
2023-05-22T17:28:47.485Z,101435.34
2023-05-22T17:31:15.173Z,101449.06
2023-05-22T17:33:43.288Z,101454.06
2023-05-22T17:36:11.103Z,101464.56
2023-05-22T17:38:40.138Z,101459.31
2023-05-22T17:41:07.755Z,101451.59
2023-05-22T17:43:36.762Z,101445.22
2023-05-22T17:46:04.923Z,101428.97
2023-05-22T17:48:33.117Z,101430.47
2023-05-22T17:51:01.165Z,101450.19
2023-05-22T17:53:32.090Z,101436.59
2023-05-22T17:56:01.840Z,101444.50
2023-05-22T17:58:29.583Z,101451.06
2023-05-22T18:00:58.157Z,101442.00
2023-05-22T18:03:26.302Z,101452.00
2023-05-22T18:05:54.020Z,101462.47
2023-05-22T18:08:21.830Z,101468.94
2023-05-22T18:10:49.998Z,101472.72
2023-05-22T18:13:19.698Z,101479.38
2023-05-22T18:15:49.422Z,101507.34
2023-05-22T18:18:17.364Z,101505.09
2023-05-22T18:20:46.125Z,101519.59
2023-05-22T18:23:13.787Z,101524.13
2023-05-22T18:25:41.457Z,101523.09
2023-05-22T18:28:09.201Z,101518.34
2023-05-22T18:30:38.349Z,101513.38
2023-05-22T18:33:08.520Z,101513.00
2023-05-22T18:35:36.286Z,101516.50
2023-05-22T18:38:04.001Z,101521.25
2023-05-22T18:40:32.041Z,101530.56
2023-05-22T18:43:00.023Z,101540.25
2023-05-22T18:45:27.646Z,101517.94
2023-05-22T18:47:58.087Z,101522.69
2023-05-22T18:50:26.287Z,101530.75
2023-05-22T18:52:53.917Z,101528.03
2023-05-22T18:55:22.019Z,101535.25
2023-05-22T18:57:49.699Z,101541.66
2023-05-22T19:00:17.821Z,101541.88
2023-05-22T19:02:45.521Z,101543.31
2023-05-22T19:05:16.388Z,101549.72
2023-05-22T19:07:44.068Z,101540.66
2023-05-22T19:10:12.184Z,101535.47
2023-05-22T19:12:39.958Z,101516.28
2023-05-22T19:15:08.768Z,101521.00
2023-05-22T19:17:36.446Z,101521.19
2023-05-22T19:20:06.525Z,101513.97
2023-05-22T19:22:37.149Z,101504.66
2023-05-22T19:25:06.303Z,101505.78
2023-05-22T19:27:36.720Z,101500.38
2023-05-22T19:30:07.940Z,101490.88
2023-05-22T19:32:36.832Z,101487.13
2023-05-22T19:35:04.693Z,101488.34
2023-05-22T19:37:32.559Z,101506.09
2023-05-22T19:40:01.561Z,101505.47
2023-05-22T19:42:29.214Z,101506.88
2023-05-22T19:44:56.849Z,101526.91
2023-05-22T19:47:25.365Z,101535.13
2023-05-22T19:49:53.004Z,101536.56
2023-05-22T19:52:20.775Z,101545.25
2023-05-22T19:54:48.463Z,101539.22
2023-05-22T19:57:19.941Z,101531.97
2023-05-22T19:59:47.666Z,101544.53
2023-05-22T20:02:15.504Z,101538.78
2023-05-22T20:04:44.061Z,101542.09
2023-05-22T20:07:11.712Z,101534.66
2023-05-22T20:09:39.332Z,101536.53
2023-05-22T20:12:07.952Z,101521.25
2023-05-22T20:14:37.133Z,101517.97
2023-05-22T20:17:05.457Z,101520.47
2023-05-22T20:19:34.551Z,101494.03
2023-05-22T20:22:04.921Z,101501.91
2023-05-22T20:24:32.556Z,101503.59
2023-05-22T20:27:01.108Z,101507.75
2023-05-22T20:29:28.806Z,101511.91
2023-05-22T20:31:57.950Z,101519.78
2023-05-22T20:34:26.502Z,101518.72
2023-05-22T20:36:54.323Z,101519.38
2023-05-22T20:39:22.303Z,101520.00
2023-05-22T20:41:50.633Z,101513.19
2023-05-22T20:44:19.321Z,101508.44
2023-05-22T20:46:46.979Z,101512.53
2023-05-22T20:49:17.517Z,101505.72
2023-05-22T20:51:45.997Z,101506.13
2023-05-22T20:54:13.602Z,101510.03
2023-05-22T20:56:41.190Z,101503.59
2023-05-22T20:59:08.970Z,101500.94
2023-05-22T21:01:36.718Z,101497.81
2023-05-22T21:04:06.577Z,101499.72
2023-05-22T21:06:36.118Z,101505.72
2023-05-22T21:09:04.974Z,101504.72
2023-05-22T21:11:32.583Z,101507.00
2023-05-22T21:14:00.234Z,101506.19
2023-05-22T21:16:27.909Z,101506.19
2023-05-22T21:18:55.730Z,101507.41
2023-05-22T21:21:23.365Z,101501.22
2023-05-22T21:23:52.510Z,101497.72
2023-05-22T21:26:22.235Z,101504.31
2023-05-22T21:28:50.368Z,101503.72
2023-05-22T21:31:18.092Z,101503.50
2023-05-22T21:33:46.181Z,101496.03
2023-05-22T21:36:13.871Z,101484.31
2023-05-22T21:38:41.473Z,101490.91
2023-05-22T21:41:11.516Z,101493.19
2023-05-22T21:43:39.133Z,101503.31
2023-05-22T21:46:06.774Z,101489.53
2023-05-22T21:48:34.509Z,101498.22
2023-05-22T21:51:02.132Z,101498.63
2023-05-22T21:53:29.916Z,101490.97
2023-05-22T21:55:57.573Z,101509.38
2023-05-22T21:58:26.588Z,101485.59
2023-05-22T22:00:54.242Z,101485.03
2023-05-22T22:03:21.936Z,101478.84
2023-05-22T22:05:49.631Z,101479.06
2023-05-22T22:08:17.791Z,101472.03
2023-05-22T22:10:45.625Z,101464.81
2023-05-22T22:13:13.284Z,101465.03
2023-05-22T22:15:42.248Z,101456.16
2023-05-22T22:18:09.935Z,101460.28
2023-05-22T22:20:44.109Z,101460.09
2023-05-22T22:23:13.367Z,101463.97
2023-05-22T22:25:41.045Z,101461.53
2023-05-22T22:28:09.017Z,101454.50
2023-05-22T22:30:36.604Z,101460.50
2023-05-22T22:33:06.242Z,101452.66
2023-05-22T22:35:33.974Z,101457.59
2023-05-22T22:38:01.659Z,101454.50
2023-05-22T22:40:29.314Z,101455.94
2023-05-22T22:42:57.060Z,101459.88
2023-05-22T22:45:26.140Z,101457.63
2023-05-22T22:47:56.497Z,101460.91
2023-05-22T22:50:25.862Z,101448.94
2023-05-22T22:52:53.650Z,101443.75
2023-05-22T22:55:21.676Z,101438.19
2023-05-22T22:57:50.108Z,101430.56
2023-05-22T23:00:18.951Z,101435.09
2023-05-22T23:02:46.903Z,101423.91
2023-05-22T23:05:14.965Z,101422.72
2023-05-22T23:07:44.359Z,101424.94
2023-05-22T23:10:12.224Z,101419.56
2023-05-22T23:12:39.864Z,101422.44
2023-05-22T23:15:09.144Z,101421.00
2023-05-22T23:17:36.860Z,101415.00
2023-05-22T23:20:05.398Z,101407.16
2023-05-22T23:22:33.048Z,101404.72
2023-05-22T23:25:02.080Z,101400.19
2023-05-22T23:27:29.693Z,101401.63
2023-05-22T23:29:57.847Z,101394.41
2023-05-22T23:32:25.714Z,101389.25
2023-05-22T23:34:53.409Z,101379.50
2023-05-22T23:37:21.096Z,101390.06
2023-05-22T23:39:48.801Z,101384.91
2023-05-22T23:42:17.843Z,101390.44
2023-05-22T23:44:45.519Z,101388.38
2023-05-22T23:47:13.181Z,101376.19
2023-05-22T23:49:40.791Z,101378.69
2023-05-22T23:52:08.436Z,101381.38
2023-05-22T23:54:36.128Z,101379.50
2023-05-22T23:57:03.781Z,101379.53
2023-05-22T23:59:32.729Z,101380.97
